Time;durP1;ratioP1;P1;durP2;ratioP2;P2;SDS_P1;SDS_P2;PMS_P1;PMS_P2;Temp;Humidity;BMP_temperature;BMP_pressure;BME280_temperature;BME280_humidity;BME280_pressure;Samples;Min_cycle;Max_cycle;Signal;HPM_P1;HPM_P2
2024/04/17 00:01:46;;;;;;;0.40;0.30;;;5.70;99.90;;;;;;15297721;19;20123;-75
2024/04/17 00:06:46;;;;;;;0.23;0.10;;;5.50;99.90;;;;;;15302922;19;20180;-75
2024/04/17 00:11:47;;;;;;;0.00;0.00;;;5.40;99.90;;;;;;15303117;19;20130;-76
2024/04/17 00:16:47;;;;;;;0.37;0.10;;;5.30;99.90;;;;;;15303895;19;20344;-75
2024/04/17 00:21:48;;;;;;;0.50;0.10;;;5.20;99.90;;;;;;15298255;19;20555;-76
2024/04/17 00:26:48;;;;;;;0.40;0.20;;;5.10;99.90;;;;;;15301248;19;20165;-75
2024/04/17 00:31:49;;;;;;;0.13;0.10;;;5.20;99.90;;;;;;15298257;19;20147;-76
2024/04/17 00:36:49;;;;;;;0.70;0.20;;;5.30;99.90;;;;;;15301733;19;20171;-76
2024/04/17 00:41:50;;;;;;;0.50;0.30;;;5.30;99.90;;;;;;15294149;19;20118;-75
2024/04/17 00:46:50;;;;;;;0.40;0.20;;;5.20;99.90;;;;;;15300709;19;20883;-76
2024/04/17 00:51:51;;;;;;;0.27;0.27;;;5.30;99.90;;;;;;15298906;19;20149;-75
2024/04/17 00:56:52;;;;;;;0.37;0.20;;;5.40;99.90;;;;;;15297990;19;20280;-75
2024/04/17 01:01:53;;;;;;;1.20;0.67;;;5.40;99.90;;;;;;15294410;19;20196;-75
2024/04/17 01:06:53;;;;;;;0.43;0.30;;;5.40;99.90;;;;;;15298163;19;20892;-76
2024/04/17 01:11:54;;;;;;;1.57;0.60;;;5.50;99.90;;;;;;15295740;19;20515;-75
2024/04/17 01:16:54;;;;;;;0.37;0.20;;;5.50;99.90;;;;;;15300697;19;20150;-75
2024/04/17 01:21:55;;;;;;;0.20;0.10;;;5.50;99.90;;;;;;15292456;19;20131;-77
2024/04/17 01:26:55;;;;;;;0.47;0.23;;;5.50;99.90;;;;;;15297234;19;20279;-76
2024/04/17 01:31:56;;;;;;;0.20;0.20;;;5.30;99.90;;;;;;15294803;19;20123;-77
2024/04/17 01:36:56;;;;;;;0.20;0.17;;;5.20;99.90;;;;;;15300225;19;20152;-77
2024/04/17 01:41:57;;;;;;;0.40;0.20;;;5.30;99.90;;;;;;15291248;19;20170;-76
2024/04/17 01:46:58;;;;;;;0.10;0.10;;;5.30;99.90;;;;;;15297346;19;20186;-76
2024/04/17 01:51:58;;;;;;;0.30;0.10;;;5.40;99.90;;;;;;15290597;19;20122;-76
2024/04/17 01:56:59;;;;;;;0.27;0.20;;;5.40;99.90;;;;;;15296711;19;20158;-76
2024/04/17 02:01:59;;;;;;;0.50;0.20;;;5.40;99.90;;;;;;15290437;19;20134;-77
2024/04/17 02:07:00;;;;;;;0.30;0.17;;;5.40;99.90;;;;;;15295281;19;20177;-76
2024/04/17 02:12:01;;;;;;;0.53;0.33;;;5.50;99.90;;;;;;15291138;19;20124;-77
2024/04/17 02:17:01;;;;;;;0.40;0.30;;;5.40;99.90;;;;;;15295003;19;20150;-76
2024/04/17 02:22:02;;;;;;;0.20;0.20;;;5.50;99.90;;;;;;15285788;19;20130;-76
2024/04/17 02:27:03;;;;;;;0.33;0.20;;;5.50;99.90;;;;;;15297961;19;20142;-78
2024/04/17 02:32:04;;;;;;;0.20;0.17;;;5.50;99.90;;;;;;15289045;19;20152;-74
2024/04/17 02:37:04;;;;;;;0.23;0.20;;;5.50;99.90;;;;;;15297191;19;20142;-76
2024/04/17 02:42:05;;;;;;;0.43;0.23;;;5.50;99.90;;;;;;15284859;19;20487;-76
2024/04/17 02:47:06;;;;;;;1.70;0.30;;;5.60;99.90;;;;;;15296726;19;20126;-78
2024/04/17 02:52:06;;;;;;;0.13;0.13;;;5.50;99.90;;;;;;15286813;19;20192;-76
2024/04/17 02:57:07;;;;;;;0.43;0.30;;;5.50;99.90;;;;;;15296664;19;20137;-77
2024/04/17 03:02:07;;;;;;;0.50;0.30;;;5.40;99.90;;;;;;15285244;19;20141;-76
2024/04/17 03:07:08;;;;;;;0.70;0.20;;;5.30;99.90;;;;;;15295920;19;20142;-76
2024/04/17 03:12:08;;;;;;;0.10;0.10;;;5.30;99.90;;;;;;15285497;19;20142;-76
2024/04/17 03:17:09;;;;;;;0.90;0.40;;;5.40;99.90;;;;;;15295606;19;20166;-78
2024/04/17 03:22:11;;;;;;;1.53;0.90;;;5.40;99.90;;;;;;15285682;19;20130;-77
2024/04/17 03:27:12;;;;;;;0.83;0.43;;;5.20;99.90;;;;;;15295493;19;20190;-76
2024/04/17 03:32:12;;;;;;;0.40;0.30;;;5.10;99.90;;;;;;15286257;19;20146;-77
2024/04/17 03:37:13;;;;;;;1.67;0.50;;;5.10;99.90;;;;;;15294732;19;20138;-76
2024/04/17 03:42:13;;;;;;;1.30;0.90;;;5.10;99.90;;;;;;15283580;19;20133;-79
2024/04/17 03:47:14;;;;;;;0.80;0.50;;;4.90;99.90;;;;;;15297630;19;20118;-77
2024/04/17 03:52:14;;;;;;;22.47;0.90;;;4.90;99.90;;;;;;15286051;19;20285;-77
2024/04/17 03:57:15;;;;;;;1.27;0.90;;;4.90;99.90;;;;;;15294436;19;20122;-76
2024/04/17 04:02:15;;;;;;;0.43;0.30;;;4.90;99.90;;;;;;15281691;19;20118;-77
2024/04/17 04:07:16;;;;;;;0.70;0.50;;;5.00;99.90;;;;;;15293662;19;20137;-77
2024/04/17 04:12:17;;;;;;;1.23;0.60;;;5.10;99.90;;;;;;15283379;19;20126;-78
2024/04/17 04:17:17;;;;;;;0.63;0.30;;;5.00;99.90;;;;;;15302295;19;20142;-77
2024/04/17 04:22:18;;;;;;;0.53;0.30;;;4.60;99.90;;;;;;15295601;19;20130;-76
2024/04/17 04:27:19;;;;;;;0.97;0.43;;;4.50;99.90;;;;;;15305205;19;20336;-76
2024/04/17 04:32:19;;;;;;;0.83;0.47;;;4.50;99.90;;;;;;15302070;19;20135;-77
2024/04/17 04:37:23;;;;;;;0.27;0.27;;;4.50;99.90;;;;;;15312174;19;20130;-82
2024/04/17 04:42:23;;;;;;;0.67;0.37;;;4.60;99.90;;;;;;15309023;19;20807;-81
2024/04/17 04:47:24;;;;;;;0.37;0.27;;;4.70;99.90;;;;;;15320899;19;20176;-81
2024/04/17 04:52:24;;;;;;;0.30;0.30;;;4.70;99.90;;;;;;15305966;19;20126;-80
2024/04/17 04:57:25;;;;;;;0.13;0.13;;;4.70;99.90;;;;;;15311665;19;20147;-79
2024/04/17 05:02:25;;;;;;;0.47;0.30;;;4.80;99.90;;;;;;15301337;19;20134;-80
2024/04/17 05:07:26;;;;;;;0.80;0.33;;;4.80;99.90;;;;;;15307108;19;20142;-79
2024/04/17 05:12:27;;;;;;;0.67;0.27;;;4.90;99.90;;;;;;15298989;19;20135;-80
2024/04/17 05:17:27;;;;;;;0.50;0.40;;;5.00;99.90;;;;;;15303997;19;20143;-81
2024/04/17 05:22:28;;;;;;;0.50;0.20;;;5.00;99.90;;;;;;15302926;19;20145;-80
2024/04/17 05:27:28;;;;;;;1.20;0.80;;;5.10;99.90;;;;;;15303186;19;20126;-79
2024/04/17 05:32:29;;;;;;;2.37;1.27;;;5.10;99.90;;;;;;15298655;19;20206;-78
2024/04/17 05:37:30;;;;;;;5.83;1.20;;;5.20;99.90;;;;;;15291645;19;20138;-79
2024/04/17 05:42:30;;;;;;;1.60;0.93;;;5.20;99.90;;;;;;15293517;19;20134;-78
2024/04/17 05:47:31;;;;;;;1.30;0.53;;;5.30;99.90;;;;;;15296006;19;20221;-78
2024/04/17 05:52:31;;;;;;;1.73;1.23;;;5.30;99.90;;;;;;15291356;19;20134;-79
2024/04/17 05:57:32;;;;;;;2.57;1.07;;;5.30;99.90;;;;;;15304656;19;20137;-79
2024/04/17 06:02:32;;;;;;;1.80;0.93;;;5.30;99.90;;;;;;15288730;19;20537;-81
2024/04/17 06:07:33;;;;;;;7.13;1.63;;;5.50;99.90;;;;;;15292793;19;20126;-80
2024/04/17 06:12:34;;;;;;;1.67;0.93;;;5.60;99.90;;;;;;15292489;19;20142;-80
2024/04/17 06:17:34;;;;;;;1.93;0.77;;;5.60;99.90;;;;;;15292047;19;20131;-76
2024/04/17 06:22:35;;;;;;;3.37;1.40;;;5.70;99.90;;;;;;15289432;19;20134;-78
2024/04/17 06:27:36;;;;;;;1.40;0.90;;;5.80;99.90;;;;;;15291696;19;20130;-76
2024/04/17 06:32:36;;;;;;;1.00;0.53;;;5.90;99.90;;;;;;15290247;19;20126;-77
2024/04/17 06:37:37;;;;;;;2.67;1.30;;;5.80;99.90;;;;;;15294474;19;20143;-77
2024/04/17 06:42:37;;;;;;;2.30;0.80;;;5.80;99.90;;;;;;15290963;19;20142;-77
2024/04/17 06:47:38;;;;;;;1.57;0.80;;;5.70;99.90;;;;;;15289716;19;20134;-77
2024/04/17 06:52:38;;;;;;;1.43;0.90;;;6.00;99.90;;;;;;15288137;19;20162;-77
2024/04/17 06:57:39;;;;;;;2.07;1.00;;;6.20;99.90;;;;;;15286133;19;20134;-81
2024/04/17 07:02:39;;;;;;;1.40;0.80;;;5.90;99.90;;;;;;15287163;19;20138;-77
2024/04/17 07:07:40;;;;;;;1.47;0.60;;;6.00;99.90;;;;;;15296754;19;20133;-78
2024/04/17 07:12:41;;;;;;;2.00;0.90;;;6.10;99.90;;;;;;15296239;19;20150;-78
2024/04/17 07:17:42;;;;;;;0.70;0.60;;;5.90;99.90;;;;;;15297600;19;20601;-78
2024/04/17 07:22:42;;;;;;;1.43;1.30;;;5.70;99.90;;;;;;15289841;19;20197;-78
2024/04/17 07:27:44;;;;;;;0.50;0.50;;;5.70;99.90;;;;;;15296824;19;20130;-78
2024/04/17 07:32:45;;;;;;;0.90;0.43;;;5.60;99.90;;;;;;15299468;19;20630;-78
2024/04/17 07:37:45;;;;;;;1.40;0.50;;;5.50;99.90;;;;;;15292304;19;20134;-78
2024/04/17 07:42:47;;;;;;;1.40;0.83;;;5.50;99.90;;;;;;15289843;19;20138;-79
2024/04/17 07:47:47;;;;;;;2.23;0.90;;;5.50;99.90;;;;;;15292047;19;20517;-78
2024/04/17 07:52:48;;;;;;;2.10;0.60;;;5.70;99.90;;;;;;15307592;19;20146;-79
2024/04/17 07:57:48;;;;;;;1.73;1.20;;;5.70;99.90;;;;;;15312113;19;20133;-78
2024/04/17 08:02:49;;;;;;;2.30;1.10;;;5.80;99.90;;;;;;15310399;19;20244;-78
2024/04/17 08:07:50;;;;;;;2.20;0.73;;;6.00;99.90;;;;;;15308327;19;20884;-79
2024/04/17 08:12:53;;;;;;;1.30;0.90;;;6.30;99.90;;;;;;15314147;19;20177;-80
2024/04/17 08:17:54;;;;;;;3.47;1.00;;;6.70;99.90;;;;;;15312536;19;20118;-78
2024/04/17 08:22:55;;;;;;;1.20;0.73;;;6.60;99.90;;;;;;15305247;19;20153;-78
2024/04/17 08:27:55;;;;;;;0.97;0.73;;;6.40;99.90;;;;;;15304799;19;20161;-78
2024/04/17 08:32:56;;;;;;;2.83;1.63;;;6.70;99.90;;;;;;15303857;19;20158;-79
2024/04/17 08:37:56;;;;;;;1.47;1.10;;;6.80;99.90;;;;;;15308131;19;20122;-78
2024/04/17 08:43:04;;;;;;;4.40;1.33;;;6.80;99.90;;;;;;15298476;19;20495;-79
2024/04/17 08:48:08;;;;;;;1.67;0.73;;;7.00;99.90;;;;;;15305579;19;20123;-79
2024/04/17 08:53:09;;;;;;;3.30;1.47;;;6.80;99.90;;;;;;15303500;19;20150;-78
2024/04/17 08:58:10;;;;;;;1.70;1.17;;;6.80;99.90;;;;;;15299305;19;20190;-78
2024/04/17 09:03:24;;;;;;;2.00;0.77;;;6.70;99.90;;;;;;15301100;19;20196;-78
2024/04/17 09:08:25;;;;;;;1.13;0.73;;;6.10;99.90;;;;;;15313695;19;20656;-77
2024/04/17 09:13:25;;;;;;;1.90;0.60;;;6.10;99.90;;;;;;15307788;19;20154;-78
2024/04/17 09:18:26;;;;;;;2.17;1.33;;;5.80;99.90;;;;;;15307752;19;20126;-78
2024/04/17 09:23:27;;;;;;;1.53;0.80;;;5.70;99.90;;;;;;15303087;19;20174;-77
2024/04/17 09:28:27;;;;;;;1.00;0.70;;;5.40;99.90;;;;;;15307443;19;20126;-78
2024/04/17 09:33:28;;;;;;;11.70;1.20;;;5.30;99.90;;;;;;15304391;19;20142;-78
2024/04/17 09:38:28;;;;;;;1.90;1.10;;;5.30;99.90;;;;;;15303190;19;20123;-79
2024/04/17 09:43:29;;;;;;;3.03;1.73;;;5.60;99.90;;;;;;15308225;19;20142;-78
2024/04/17 09:48:30;;;;;;;2.17;1.20;;;5.60;99.90;;;;;;15312751;19;20125;-79
2024/04/17 09:53:33;;;;;;;2.77;1.07;;;5.70;99.90;;;;;;15309613;19;20181;-78
2024/04/17 09:58:34;;;;;;;1.87;1.00;;;5.80;99.90;;;;;;15312350;19;20142;-79
2024/04/17 10:03:36;;;;;;;1.40;0.60;;;5.70;99.90;;;;;;15310977;19;20605;-79
2024/04/17 10:08:37;;;;;;;1.57;0.87;;;5.80;99.90;;;;;;15314558;19;20130;-79
2024/04/17 10:13:39;;;;;;;1.67;0.80;;;6.20;99.90;;;;;;15305712;19;20165;-79
2024/04/17 10:18:39;;;;;;;1.77;1.03;;;6.50;99.90;;;;;;15307470;19;20118;-78
2024/04/17 10:23:40;;;;;;;1.13;0.87;;;6.20;99.90;;;;;;15307247;19;20135;-78
2024/04/17 10:28:51;;;;;;;1.93;1.03;;;6.20;99.90;;;;;;15298297;19;20146;-79
2024/04/17 10:33:52;;;;;;;2.33;1.23;;;6.80;99.90;;;;;;15304642;19;20150;-80
2024/04/17 10:38:54;;;;;;;3.37;1.40;;;7.20;99.90;;;;;;15308982;19;20130;-79
2024/04/17 10:43:58;;;;;;;2.63;1.50;;;7.60;99.90;;;;;;15299017;19;20174;-80
2024/04/17 10:48:59;;;;;;;4.00;1.37;;;7.80;99.90;;;;;;15300008;19;20639;-79
2024/04/17 10:54:01;;;;;;;2.97;1.57;;;7.40;99.90;;;;;;15298447;19;20155;-79
2024/04/17 10:59:02;;;;;;;3.03;1.23;;;8.00;99.90;;;;;;15294871;19;20123;-80
2024/04/17 11:04:03;;;;;;;2.33;1.20;;;7.60;99.90;;;;;;15297842;19;20190;-79
2024/04/17 11:09:06;;;;;;;4.00;1.73;;;7.40;99.90;;;;;;15300877;19;20202;-79
2024/04/17 11:14:13;;;;;;;2.33;1.23;;;7.80;99.90;;;;;;15296187;19;20177;-79
2024/04/17 11:19:14;;;;;;;7.23;1.53;;;8.40;99.90;;;;;;15301158;19;20165;-79
2024/04/17 11:24:18;;;;;;;2.13;1.13;;;8.00;99.90;;;;;;15298933;19;20660;-77
2024/04/17 11:29:19;;;;;;;1.43;0.80;;;7.40;99.90;;;;;;15316225;19;20142;-77
2024/04/17 11:34:21;;;;;;;2.50;0.90;;;6.90;99.90;;;;;;15317339;19;20170;-78
2024/04/17 11:39:21;;;;;;;1.33;0.80;;;7.30;99.90;;;;;;15325615;19;20126;-79
2024/04/17 11:44:22;;;;;;;1.60;1.03;;;7.90;99.90;;;;;;15337877;19;20154;-79
2024/04/17 11:49:22;;;;;;;2.23;1.03;;;8.50;99.90;;;;;;15328708;19;20587;-78
2024/04/17 11:54:23;;;;;;;1.90;1.00;;;9.10;99.90;;;;;;15339680;19;20178;-78
2024/04/17 11:59:23;;;;;;;7.60;1.60;;;8.80;99.90;;;;;;15319326;19;20634;-80
2024/04/17 12:04:27;;;;;;;3.50;1.63;;;9.20;99.90;;;;;;15323996;19;20158;-78
2024/04/17 12:09:29;;;;;;;3.03;1.30;;;9.60;99.90;;;;;;15325634;19;20154;-77
2024/04/17 12:14:30;;;;;;;4.83;1.23;;;9.00;99.90;;;;;;15337660;19;20143;-79
2024/04/17 12:19:30;;;;;;;2.27;1.13;;;8.50;99.90;;;;;;15340037;19;20143;-78
2024/04/17 12:29:50;;;;;;;1.60;0.60;;;8.80;99.90;;;;;;15324562;19;20135;-79
2024/04/17 12:34:50;;;;;;;1.93;1.17;;;8.80;99.90;;;;;;15315726;19;20146;-79
2024/04/17 12:39:51;;;;;;;2.53;1.00;;;8.60;99.90;;;;;;15302969;19;20150;-78
2024/04/17 12:44:51;;;;;;;1.80;0.80;;;8.90;99.90;;;;;;15313999;19;20184;-78
2024/04/17 12:49:52;;;;;;;4.17;1.00;;;9.30;99.90;;;;;;15316459;19;20608;-79
2024/04/17 12:54:52;;;;;;;1.00;0.63;;;9.80;99.90;;;;;;15318428;19;20705;-79
2024/04/17 12:59:53;;;;;;;1.63;0.87;;;9.40;99.90;;;;;;15321456;19;20159;-79
2024/04/17 13:04:53;;;;;;;1.73;0.70;;;9.20;99.90;;;;;;15329338;19;20177;-79
2024/04/17 13:09:55;;;;;;;1.40;0.70;;;8.70;99.90;;;;;;15325244;19;20138;-78
2024/04/17 13:14:55;;;;;;;1.60;0.67;;;9.10;99.90;;;;;;15322754;19;20145;-79
2024/04/17 13:19:59;;;;;;;2.37;1.30;;;8.80;99.90;;;;;;15314421;19;20840;-79
2024/04/17 13:25:00;;;;;;;2.33;1.00;;;9.00;99.90;;;;;;15309837;19;20146;-79
2024/04/17 13:30:01;;;;;;;1.17;0.50;;;8.70;99.90;;;;;;15311966;19;20122;-80
2024/04/17 13:35:01;;;;;;;1.77;0.50;;;8.50;99.90;;;;;;15317191;19;20178;-78
2024/04/17 13:40:02;;;;;;;3.80;0.77;;;8.40;99.90;;;;;;15316140;19;20459;-80
2024/04/17 13:45:05;;;;;;;2.10;0.63;;;8.70;99.90;;;;;;15311388;19;20229;-79
2024/04/17 13:50:07;;;;;;;2.17;1.00;;;9.00;99.90;;;;;;15308779;19;20167;-78
2024/04/17 13:55:07;;;;;;;2.10;0.90;;;9.00;99.90;;;;;;15311756;19;20170;-78
2024/04/17 14:00:08;;;;;;;1.70;0.70;;;9.20;99.90;;;;;;15297944;19;20165;-78
2024/04/17 14:05:09;;;;;;;0.90;0.50;;;9.40;99.90;;;;;;15295768;19;20177;-80
2024/04/17 14:10:09;;;;;;;0.63;0.53;;;9.50;99.90;;;;;;15296622;19;20119;-79
2024/04/17 14:15:10;;;;;;;2.73;1.20;;;9.50;99.90;;;;;;15295648;19;20881;-79
2024/04/17 14:20:11;;;;;;;1.60;0.80;;;10.10;99.90;;;;;;15292134;19;20255;-78
2024/04/17 14:25:15;;;;;;;1.80;0.80;;;10.40;99.90;;;;;;15309957;19;20169;-79
2024/04/17 14:30:15;;;;;;;5.23;1.07;;;10.70;99.90;;;;;;15333454;19;20154;-82
2024/04/17 14:35:16;;;;;;;2.87;1.20;;;10.80;99.90;;;;;;15307863;19;20543;-81
2024/04/17 14:40:20;;;;;;;2.40;0.60;;;11.10;99.90;;;;;;15292520;19;20165;-77
2024/04/17 14:45:21;;;;;;;1.77;0.90;;;11.20;99.90;;;;;;15293874;19;20210;-78
2024/04/17 14:50:21;;;;;;;2.07;0.97;;;11.70;99.90;;;;;;15289681;19;21028;-78
2024/04/17 14:55:22;;;;;;;2.63;1.10;;;11.20;99.90;;;;;;15290062;19;20179;-77
2024/04/17 15:00:22;;;;;;;1.70;0.83;;;10.70;99.90;;;;;;15289240;19;20760;-78
2024/04/17 15:05:23;;;;;;;1.90;0.83;;;10.30;99.90;;;;;;15294874;19;20162;-79
2024/04/17 15:10:24;;;;;;;2.13;0.80;;;10.60;99.90;;;;;;15295077;19;20118;-78
2024/04/17 15:15:24;;;;;;;2.57;0.77;;;11.20;99.90;;;;;;15293747;19;20182;-78
2024/04/17 15:20:25;;;;;;;1.73;1.10;;;10.70;99.90;;;;;;15315063;19;20134;-79
2024/04/17 15:25:25;;;;;;;2.07;0.97;;;10.90;99.90;;;;;;15304832;19;20158;-78
2024/04/17 15:30:26;;;;;;;2.27;1.23;;;11.20;99.90;;;;;;15301629;19;20512;-83
2024/04/17 15:35:26;;;;;;;1.27;0.63;;;11.20;99.90;;;;;;15305016;19;20211;-83
2024/04/17 15:40:27;;;;;;;2.63;1.37;;;11.40;99.90;;;;;;15308682;19;20138;-82
2024/04/17 15:45:30;;;;;;;2.53;0.87;;;11.70;99.90;;;;;;15296820;19;20166;-81
2024/04/17 15:50:31;;;;;;;1.07;0.60;;;11.30;99.90;;;;;;15296537;19;20152;-81
2024/04/17 15:55:33;;;;;;;2.83;0.67;;;11.80;99.90;;;;;;15296814;19;20918;-81
2024/04/17 16:00:33;;;;;;;1.47;0.80;;;11.40;99.90;;;;;;15301040;19;20482;-81
2024/04/17 16:05:35;;;;;;;0.93;0.60;;;11.50;99.90;;;;;;15296671;19;20201;-82
2024/04/17 16:10:35;;;;;;;1.83;0.90;;;11.20;99.90;;;;;;15302826;19;20122;-81
2024/04/17 16:15:36;;;;;;;1.40;0.77;;;11.20;99.90;;;;;;15331876;19;20142;-81
2024/04/17 16:20:36;;;;;;;2.87;0.63;;;9.80;99.90;;;;;;15321403;19;20162;-81
2024/04/17 16:25:37;;;;;;;1.33;0.60;;;8.70;99.90;;;;;;15316447;19;20177;-81
2024/04/17 16:30:38;;;;;;;1.70;0.67;;;7.70;99.90;;;;;;15321151;19;20624;-82
2024/04/17 16:35:39;;;;;;;0.93;0.50;;;7.30;99.90;;;;;;15314896;19;20165;-82
2024/04/17 16:40:39;;;;;;;0.63;0.47;;;7.00;99.90;;;;;;15312957;19;20150;-82
2024/04/17 16:45:40;;;;;;;0.83;0.40;;;6.60;99.90;;;;;;15313022;19;20213;-82
2024/04/17 16:50:41;;;;;;;1.23;0.77;;;6.50;99.90;;;;;;15307655;19;20174;-82
2024/04/17 16:55:47;;;;;;;1.53;0.60;;;6.30;99.90;;;;;;15311627;19;20157;-83
2024/04/17 17:00:48;;;;;;;0.97;0.50;;;6.60;99.90;;;;;;15326405;19;20124;-82
2024/04/17 17:05:56;;;;;;;1.40;0.60;;;6.70;99.90;;;;;;15329256;19;20154;-83
2024/04/17 17:10:57;;;;;;;1.17;0.70;;;6.60;99.90;;;;;;15315720;19;20143;-80
2024/04/17 17:16:02;;;;;;;0.87;0.37;;;6.70;99.90;;;;;;15315278;19;20158;-82
2024/04/17 17:21:08;;;;;;;0.30;0.30;;;6.90;99.90;;;;;;15308273;19;20210;-84
2024/04/17 17:26:09;;;;;;;0.77;0.57;;;6.10;99.90;;;;;;15285368;19;20182;-85
2024/04/17 17:31:10;;;;;;;0.30;0.30;;;5.30;99.90;;;;;;15319299;19;20142;-85
2024/04/17 17:36:12;;;;;;;0.63;0.40;;;4.70;99.90;;;;;;15307346;19;20241;-85
2024/04/17 17:41:18;;;;;;;0.37;0.20;;;4.70;99.90;;;;;;15307112;19;20150;-85
2024/04/17 17:46:20;;;;;;;1.13;0.70;;;4.80;99.90;;;;;;15306370;19;20265;-83
2024/04/17 17:51:21;;;;;;;0.40;0.30;;;4.80;99.90;;;;;;15295129;19;20134;-83
2024/04/17 17:56:22;;;;;;;0.63;0.40;;;4.80;99.90;;;;;;15293572;19;20177;-84
2024/04/17 18:01:23;;;;;;;0.83;0.43;;;4.80;99.90;;;;;;15299514;19;20134;-82
2024/04/17 18:06:24;;;;;;;1.27;0.40;;;4.90;99.90;;;;;;15291374;19;20641;-84
2024/04/17 18:11:25;;;;;;;0.37;0.37;;;4.80;99.90;;;;;;15307964;19;20595;-82
2024/04/17 18:16:26;;;;;;;0.70;0.40;;;4.50;99.90;;;;;;15306181;19;20160;-82
2024/04/17 18:21:27;;;;;;;0.30;0.30;;;4.40;99.90;;;;;;15311145;19;20531;-81
2024/04/17 18:26:28;;;;;;;1.20;0.70;;;4.30;99.90;;;;;;15317158;19;20164;-82
2024/04/17 18:31:29;;;;;;;0.70;0.40;;;4.30;99.90;;;;;;15328156;19;20151;-81
2024/04/17 18:36:29;;;;;;;0.80;0.50;;;4.20;99.90;;;;;;15304243;19;20169;-82
2024/04/17 18:41:30;;;;;;;0.20;0.20;;;4.10;99.90;;;;;;15309777;19;20118;-82
2024/04/17 18:46:32;;;;;;;0.80;0.60;;;4.00;99.90;;;;;;15306221;19;20180;-82
2024/04/17 18:51:33;;;;;;;1.70;0.60;;;4.10;99.90;;;;;;15320383;19;20130;-82
2024/04/17 18:56:33;;;;;;;0.50;0.30;;;4.10;99.90;;;;;;15319486;19;20182;-82
2024/04/17 19:01:34;;;;;;;1.10;0.40;;;4.20;99.90;;;;;;15300006;19;20613;-81
2024/04/17 19:06:34;;;;;;;1.53;1.07;;;4.30;99.90;;;;;;15294396;19;20180;-82
2024/04/17 19:11:35;;;;;;;0.20;0.20;;;4.30;99.90;;;;;;15289817;19;20145;-81
2024/04/17 19:16:35;;;;;;;0.60;0.37;;;4.20;99.90;;;;;;15297199;19;20494;-82
2024/04/17 19:21:36;;;;;;;0.47;0.30;;;4.20;99.90;;;;;;15290915;19;20138;-81
2024/04/17 19:26:37;;;;;;;0.43;0.33;;;4.20;99.90;;;;;;15299814;19;20170;-82
2024/04/17 19:31:37;;;;;;;1.73;0.70;;;4.20;99.90;;;;;;15298158;19;20134;-82
2024/04/17 19:36:38;;;;;;;0.50;0.30;;;4.00;99.90;;;;;;15302162;19;20142;-82
2024/04/17 19:41:38;;;;;;;0.70;0.40;;;3.80;99.90;;;;;;15319894;19;20142;-81
2024/04/17 19:46:39;;;;;;;1.30;0.80;;;3.90;99.90;;;;;;15330531;19;20134;-82
2024/04/17 19:51:39;;;;;;;0.67;0.40;;;4.10;99.90;;;;;;15313842;19;20118;-82
2024/04/17 19:56:40;;;;;;;4.23;0.87;;;4.30;99.90;;;;;;15317253;19;20150;-82
2024/04/17 20:01:40;;;;;;;0.87;0.70;;;4.20;99.90;;;;;;15321109;19;20154;-81
2024/04/17 20:06:41;;;;;;;0.97;0.73;;;4.00;99.90;;;;;;15330456;19;20177;-81
2024/04/17 20:11:41;;;;;;;3.33;1.57;;;3.80;99.90;;;;;;15329368;19;20218;-81
2024/04/17 20:16:43;;;;;;;1.10;0.80;;;3.70;99.90;;;;;;15346256;19;20142;-82
2024/04/17 20:21:44;;;;;;;1.73;0.60;;;3.70;99.90;;;;;;15321718;19;20134;-81
2024/04/17 20:26:45;;;;;;;1.00;0.60;;;3.70;99.90;;;;;;15313747;19;20222;-80
2024/04/17 20:31:45;;;;;;;1.10;0.70;;;3.70;99.90;;;;;;15267224;19;20225;-79
2024/04/17 20:36:46;;;;;;;2.60;1.23;;;3.70;99.90;;;;;;15296913;19;20153;-81
2024/04/17 20:41:49;;;;;;;2.00;0.80;;;3.70;99.90;;;;;;15303701;19;20121;-80
2024/04/17 20:46:49;;;;;;;1.13;0.40;;;3.60;99.90;;;;;;15295349;19;20169;-80
2024/04/17 20:51:50;;;;;;;3.43;1.40;;;3.90;99.90;;;;;;15303819;19;20627;-80
2024/04/17 20:56:50;;;;;;;0.50;0.30;;;3.90;99.90;;;;;;15296601;19;20163;-80
2024/04/17 21:01:51;;;;;;;0.60;0.47;;;3.90;99.90;;;;;;15298023;19;20126;-79
2024/04/17 21:06:51;;;;;;;0.60;0.40;;;3.90;99.90;;;;;;15295118;19;20175;-78
2024/04/17 21:11:52;;;;;;;1.33;0.90;;;4.00;99.90;;;;;;15300972;19;20122;-79
2024/04/17 21:16:52;;;;;;;1.47;0.90;;;4.30;99.90;;;;;;15297759;19;20779;-78
2024/04/17 21:21:53;;;;;;;2.97;0.80;;;4.50;99.90;;;;;;15303699;19;20604;-77
2024/04/17 21:26:53;;;;;;;0.60;0.50;;;4.70;99.90;;;;;;15289840;19;20146;-78
2024/04/17 21:31:55;;;;;;;1.33;0.90;;;4.90;99.90;;;;;;15300229;19;20118;-78
2024/04/17 21:36:55;;;;;;;1.13;0.90;;;5.10;99.90;;;;;;15256307;19;20225;-78
2024/04/17 21:41:56;;;;;;;0.97;0.63;;;5.10;99.90;;;;;;15316831;19;20227;-78
2024/04/17 21:46:56;;;;;;;2.20;0.73;;;5.10;99.90;;;;;;15296887;19;20146;-79
2024/04/17 21:51:57;;;;;;;0.60;0.50;;;5.10;99.90;;;;;;15302191;19;20134;-79
2024/04/17 21:56:57;;;;;;;2.60;0.80;;;5.00;99.90;;;;;;15294434;19;20177;-79
2024/04/17 22:01:58;;;;;;;1.07;0.50;;;4.30;99.90;;;;;;15299861;19;20126;-78
2024/04/17 22:06:58;;;;;;;1.73;0.80;;;4.20;99.90;;;;;;15295997;19;20145;-78
2024/04/17 22:11:59;;;;;;;1.03;0.90;;;4.00;99.90;;;;;;15294828;19;20471;-78
2024/04/17 22:16:59;;;;;;;1.07;0.30;;;3.80;99.90;;;;;;15294157;19;20181;-78
2024/04/17 22:22:03;;;;;;;1.47;0.80;;;3.70;99.90;;;;;;15300309;19;20154;-78
2024/04/17 22:27:06;;;;;;;1.23;0.90;;;3.70;99.90;;;;;;15300578;19;21171;-79
2024/04/17 22:32:06;;;;;;;2.33;1.00;;;3.70;99.90;;;;;;15302658;19;20141;-78
2024/04/17 22:37:06;;;;;;;1.43;0.77;;;3.90;99.90;;;;;;15304531;19;20167;-79
2024/04/17 22:42:07;;;;;;;1.70;1.23;;;4.00;99.90;;;;;;15303380;19;20141;-79
2024/04/17 22:47:07;;;;;;;0.77;0.47;;;4.20;99.90;;;;;;15306965;19;20189;-79
2024/04/17 22:52:08;;;;;;;1.10;0.67;;;4.00;99.90;;;;;;15305208;19;20493;-79
2024/04/17 22:57:08;;;;;;;1.17;0.87;;;4.30;99.90;;;;;;15317430;19;20146;-79
2024/04/17 23:02:09;;;;;;;1.00;0.63;;;4.40;99.90;;;;;;15321334;19;20118;-79
2024/04/17 23:07:10;;;;;;;1.20;0.50;;;4.50;99.90;;;;;;15319133;19;20198;-79
2024/04/17 23:12:11;;;;;;;0.90;0.50;;;4.60;99.90;;;;;;15308424;19;20126;-79
2024/04/17 23:17:11;;;;;;;0.83;0.40;;;4.60;99.90;;;;;;15301975;19;20162;-79
2024/04/17 23:22:12;;;;;;;1.43;0.90;;;4.40;99.90;;;;;;15295558;19;20133;-79
2024/04/17 23:27:12;;;;;;;2.67;0.90;;;4.30;99.90;;;;;;15304849;19;20150;-79
2024/04/17 23:32:13;;;;;;;2.30;0.70;;;4.20;99.90;;;;;;15301228;19;20688;-79
2024/04/17 23:37:13;;;;;;;3.37;1.20;;;4.30;99.90;;;;;;15300541;19;20174;-79
2024/04/17 23:42:14;;;;;;;1.23;1.00;;;4.40;99.90;;;;;;15295713;19;20173;-79
2024/04/17 23:47:14;;;;;;;0.83;0.70;;;4.20;99.90;;;;;;15302673;19;20157;-79
2024/04/17 23:52:20;;;;;;;1.83;0.90;;;4.00;99.90;;;;;;15322647;19;20146;-78
2024/04/17 23:57:20;;;;;;;1.23;0.47;;;4.10;99.90;;;;;;15335283;19;20177;-79
